Time;durP1;ratioP1;P1;durP2;ratioP2;P2;SDS_P1;SDS_P2;PMS_P1;PMS_P2;Temp;Humidity;BMP_temperature;BMP_pressure;BME280_temperature;BME280_humidity;BME280_pressure;Samples;Min_cycle;Max_cycle;Signal;HPM_P1;HPM_P2
2023/03/06 09:10:45;;;;;;;16.77;8.03;;;7.70;99.90;;;;;;4894601;29;20229;-76
2023/03/06 09:13:12;;;;;;;20.47;8.60;;;7.80;99.90;;;;;;4899320;29;20661;-75
2023/03/06 09:15:39;;;;;;;18.33;7.53;;;8.20;99.90;;;;;;4890622;29;20698;-76
2023/03/06 09:18:06;;;;;;;19.63;8.83;;;8.60;99.90;;;;;;4880017;29;20247;-77
2023/03/06 09:20:33;;;;;;;17.37;8.03;;;8.90;99.90;;;;;;4880513;29;20214;-75
2023/03/06 09:23:00;;;;;;;16.97;7.73;;;9.10;99.90;;;;;;4880897;29;20223;-75
2023/03/06 09:25:26;;;;;;;19.70;7.90;;;9.20;99.90;;;;;;4879747;29;20321;-75
2023/03/06 09:27:55;;;;;;;18.97;8.87;;;9.00;99.90;;;;;;4880216;29;20219;-76
2023/03/06 09:30:22;;;;;;;18.80;8.17;;;9.00;99.90;;;;;;4880501;29;20215;-74
2023/03/06 09:32:49;;;;;;;16.50;7.90;;;8.60;99.90;;;;;;4879899;29;20219;-75
2023/03/06 09:35:17;;;;;;;19.03;8.43;;;8.50;99.90;;;;;;4880242;29;20227;-75
2023/03/06 09:37:44;;;;;;;20.43;7.60;;;8.60;99.90;;;;;;4880313;29;20245;-76
2023/03/06 09:40:18;;;;;;;17.40;7.70;;;8.40;99.90;;;;;;4878667;29;20237;-74
2023/03/06 09:42:45;;;;;;;18.13;8.60;;;8.00;99.90;;;;;;4882255;29;20211;-74
2023/03/06 09:45:13;;;;;;;17.63;7.53;;;8.10;99.90;;;;;;4880317;29;20235;-75
2023/03/06 09:47:47;;;;;;;17.37;8.37;;;8.30;99.90;;;;;;4879590;29;20342;-74
2023/03/06 09:50:36;;;;;;;18.33;7.73;;;8.00;99.90;;;;;;4879934;29;20214;-74
2023/03/06 09:53:15;;;;;;;19.37;8.37;;;7.90;99.90;;;;;;4880044;29;20301;-74
2023/03/06 09:55:43;;;;;;;18.70;7.87;;;7.90;99.90;;;;;;4878651;29;20231;-73
2023/03/06 09:58:17;;;;;;;17.83;8.03;;;8.00;99.90;;;;;;4879116;29;20247;-74
2023/03/06 10:00:51;;;;;;;17.63;7.50;;;7.90;99.90;;;;;;4878961;29;20710;-73
2023/03/06 10:03:25;;;;;;;19.60;7.60;;;7.60;99.90;;;;;;4879022;29;20217;-73
2023/03/06 10:05:59;;;;;;;16.53;7.90;;;7.70;99.90;;;;;;4879734;29;20258;-75
2023/03/06 10:08:34;;;;;;;16.40;7.90;;;8.20;99.90;;;;;;4879600;29;20215;-74
2023/03/06 10:11:02;;;;;;;15.47;7.80;;;8.40;99.90;;;;;;4879442;29;20225;-74
2023/03/06 10:13:38;;;;;;;19.77;7.97;;;8.50;99.90;;;;;;4880111;29;20215;-73
2023/03/06 10:16:18;;;;;;;17.27;7.67;;;8.30;99.90;;;;;;4879648;29;20618;-74
2023/03/06 10:18:45;;;;;;;18.10;7.57;;;8.30;99.90;;;;;;4878826;29;20732;-76
2023/03/06 10:21:28;;;;;;;16.73;8.47;;;8.50;99.90;;;;;;4879381;29;20215;-74
2023/03/06 10:24:02;;;;;;;19.20;7.63;;;8.70;99.90;;;;;;4879384;29;20211;-74
2023/03/06 10:26:35;;;;;;;16.20;7.80;;;8.90;99.90;;;;;;4878743;29;20234;-74
2023/03/06 10:29:19;;;;;;;17.40;8.97;;;8.90;99.90;;;;;;4879581;29;20211;-73
2023/03/06 10:32:00;;;;;;;17.40;7.57;;;8.90;99.90;;;;;;4878825;29;20678;-74
2023/03/06 10:34:32;;;;;;;19.43;7.97;;;8.90;99.90;;;;;;4879616;29;20217;-74
2023/03/06 10:37:05;;;;;;;16.87;7.53;;;9.00;99.90;;;;;;4878816;29;20212;-73
2023/03/06 10:39:32;;;;;;;21.07;8.20;;;9.00;99.90;;;;;;4878718;29;20715;-74
2023/03/06 10:41:59;;;;;;;18.40;8.17;;;8.90;99.90;;;;;;4879205;29;20219;-74
2023/03/06 10:44:26;;;;;;;18.63;7.50;;;9.10;99.90;;;;;;4879105;29;20211;-74
2023/03/06 10:46:55;;;;;;;15.80;7.30;;;9.10;99.90;;;;;;4878793;29;20227;-75
2023/03/06 10:49:37;;;;;;;15.23;7.00;;;9.00;99.90;;;;;;4878791;29;20322;-74
2023/03/06 10:52:06;;;;;;;13.17;6.73;;;9.10;99.90;;;;;;4876887;29;20223;-73
2023/03/06 10:54:35;;;;;;;14.40;7.13;;;9.40;99.90;;;;;;4878616;29;20223;-75
2023/03/06 10:57:18;;;;;;;14.67;6.63;;;9.50;99.90;;;;;;4875208;29;20753;-73
2023/03/06 10:59:52;;;;;;;18.57;6.80;;;9.50;99.90;;;;;;4879868;29;20370;-73
2023/03/06 11:02:26;;;;;;;14.77;6.93;;;9.40;99.90;;;;;;4879737;29;20211;-73
2023/03/06 11:04:54;;;;;;;15.13;6.07;;;9.30;99.90;;;;;;4879810;29;20590;-73
2023/03/06 11:07:23;;;;;;;13.60;6.00;;;9.30;99.90;;;;;;4880238;29;20218;-73
2023/03/06 11:10:01;;;;;;;15.30;6.13;;;9.10;99.90;;;;;;4879727;29;20219;-73
2023/03/06 11:12:31;;;;;;;16.17;6.80;;;9.10;99.90;;;;;;4879948;29;20298;-75
2023/03/06 11:15:20;;;;;;;14.47;6.33;;;9.10;99.90;;;;;;4879654;29;20242;-73
2023/03/06 11:17:57;;;;;;;13.33;5.97;;;9.40;99.90;;;;;;4880063;29;20211;-73
2023/03/06 11:20:27;;;;;;;15.80;6.97;;;9.50;99.90;;;;;;4879983;29;20210;-73
2023/03/06 11:22:58;;;;;;;18.57;7.10;;;9.60;99.90;;;;;;4879614;29;20238;-73
2023/03/06 11:25:31;;;;;;;15.67;6.93;;;9.50;99.90;;;;;;4879495;29;20713;-73
2023/03/06 11:28:02;;;;;;;13.33;6.53;;;9.40;99.90;;;;;;4879964;29;20215;-73
2023/03/06 11:30:37;;;;;;;15.23;6.83;;;9.20;99.90;;;;;;4879803;29;20215;-73
2023/03/06 11:33:14;;;;;;;16.53;6.97;;;9.00;99.90;;;;;;4879656;29;20210;-73
2023/03/06 11:35:51;;;;;;;14.57;6.97;;;8.60;99.90;;;;;;4879628;29;20234;-74
2023/03/06 11:38:23;;;;;;;14.57;6.93;;;8.60;99.90;;;;;;4879669;29;20207;-73
2023/03/06 11:40:54;;;;;;;13.83;6.40;;;8.40;99.90;;;;;;4879505;29;20215;-73
2023/03/06 11:43:25;;;;;;;14.97;6.83;;;8.20;99.90;;;;;;4879482;29;20663;-73
2023/03/06 11:45:57;;;;;;;14.17;6.93;;;8.20;99.90;;;;;;4879261;29;20227;-73
2023/03/06 11:48:31;;;;;;;15.73;7.50;;;8.30;99.90;;;;;;4879145;29;20263;-73
2023/03/06 11:51:04;;;;;;;17.17;6.80;;;8.20;99.90;;;;;;4879306;29;20563;-74
2023/03/06 11:53:34;;;;;;;13.43;7.07;;;8.30;99.90;;;;;;4875398;29;20211;-74
2023/03/06 11:56:13;;;;;;;17.13;6.97;;;8.70;99.90;;;;;;4872928;29;20238;-75
2023/03/06 11:58:57;;;;;;;12.50;6.20;;;8.90;99.90;;;;;;4877719;29;20262;-76
2023/03/06 12:01:30;;;;;;;17.23;7.27;;;8.90;99.90;;;;;;4859187;29;20215;-76
2023/03/06 12:04:28;;;;;;;15.20;6.97;;;8.90;99.90;;;;;;4872542;29;20214;-74
2023/03/06 12:07:02;;;;;;;14.00;6.47;;;9.00;99.90;;;;;;4882264;29;20234;-77
2023/03/06 12:09:40;;;;;;;15.60;6.80;;;9.00;99.90;;;;;;4880196;29;20257;-75
2023/03/06 12:12:21;;;;;;;15.40;7.70;;;9.00;99.90;;;;;;4883657;29;20358;-75
2023/03/06 12:15:05;;;;;;;17.07;7.10;;;8.90;99.90;;;;;;4882892;29;20206;-75
2023/03/06 12:17:50;;;;;;;13.97;6.03;;;8.60;99.90;;;;;;4883015;29;20215;-77
2023/03/06 12:20:32;;;;;;;12.67;5.87;;;8.50;99.90;;;;;;4882311;29;20241;-81
2023/03/06 12:23:09;;;;;;;16.30;6.30;;;8.50;99.90;;;;;;4882927;29;20670;-76
2023/03/06 12:25:38;;;;;;;14.67;6.57;;;8.60;99.90;;;;;;4881945;29;20240;-75
2023/03/06 12:28:31;;;;;;;15.77;7.13;;;8.80;99.90;;;;;;4883001;29;20315;-74
2023/03/06 12:31:18;;;;;;;13.83;6.73;;;8.80;99.90;;;;;;4882922;29;20229;-75
2023/03/06 12:33:54;;;;;;;15.73;6.90;;;9.00;99.90;;;;;;4883144;29;20682;-75
2023/03/06 12:36:35;;;;;;;17.50;6.77;;;8.80;99.90;;;;;;4883284;29;20258;-76
2023/03/06 12:39:10;;;;;;;12.43;6.13;;;9.10;99.90;;;;;;4884987;29;20243;-73
2023/03/06 12:41:46;;;;;;;13.00;6.07;;;9.40;99.90;;;;;;4884967;29;20214;-74
2023/03/06 12:44:38;;;;;;;12.90;6.40;;;9.60;99.90;;;;;;4884983;29;20207;-76
2023/03/06 12:47:09;;;;;;;11.53;5.90;;;9.60;99.90;;;;;;4885045;29;20666;-75
2023/03/06 12:49:40;;;;;;;12.27;6.27;;;9.40;99.90;;;;;;4884856;29;20722;-75
2023/03/06 12:52:10;;;;;;;12.97;6.20;;;9.10;99.90;;;;;;4884718;29;20212;-75
2023/03/06 12:54:40;;;;;;;13.63;6.07;;;9.00;99.90;;;;;;4884519;29;20678;-75
2023/03/06 12:57:10;;;;;;;15.57;6.83;;;8.90;99.90;;;;;;4884658;29;20225;-75
2023/03/06 12:59:43;;;;;;;15.30;6.30;;;8.70;99.90;;;;;;4884877;29;20238;-74
2023/03/06 13:02:47;;;;;;;13.07;6.07;;;8.70;99.90;;;;;;4884861;29;20211;-75
2023/03/06 13:05:57;;;;;;;13.97;6.33;;;8.90;99.90;;;;;;4884690;29;20597;-75
2023/03/06 13:08:53;;;;;;;14.27;6.43;;;8.70;99.90;;;;;;4884851;29;20213;-73
2023/03/06 13:11:29;;;;;;;15.43;6.60;;;8.70;99.90;;;;;;4877644;29;20218;-75
2023/03/06 13:13:57;;;;;;;18.77;6.87;;;8.80;99.90;;;;;;4883604;29;20211;-84
2023/03/06 13:16:29;;;;;;;14.40;5.90;;;8.80;99.90;;;;;;4880668;29;20235;-74
2023/03/06 13:19:16;;;;;;;16.53;7.30;;;8.80;99.90;;;;;;4877210;29;20246;-75
2023/03/06 13:22:00;;;;;;;15.90;6.33;;;8.90;99.90;;;;;;4880330;29;20211;-76
2023/03/06 13:24:31;;;;;;;16.90;6.37;;;8.80;99.90;;;;;;4880297;29;20215;-82
2023/03/06 13:27:00;;;;;;;16.07;6.97;;;8.80;99.90;;;;;;4879754;29;20518;-78
2023/03/06 13:30:21;;;;;;;16.37;6.83;;;8.70;99.90;;;;;;4880036;29;20674;-77
2023/03/06 13:32:50;;;;;;;15.33;6.90;;;8.70;99.90;;;;;;4879884;29;20219;-77
2023/03/06 13:35:51;;;;;;;16.40;7.00;;;8.60;99.90;;;;;;4879727;29;20227;-77
2023/03/06 13:38:33;;;;;;;20.63;7.33;;;8.60;99.90;;;;;;4879631;29;20310;-79
2023/03/06 13:41:44;;;;;;;12.50;6.77;;;8.40;99.90;;;;;;4879092;29;20249;-76
2023/03/06 13:44:47;;;;;;;17.07;7.23;;;8.50;99.90;;;;;;4840301;29;20240;-76
2023/03/06 13:47:37;;;;;;;18.53;7.10;;;8.60;99.90;;;;;;4879369;29;20366;-76
2023/03/06 13:50:30;;;;;;;16.30;7.90;;;8.90;99.90;;;;;;4864822;29;20299;-75
2023/03/06 13:53:11;;;;;;;18.77;8.00;;;8.80;99.90;;;;;;4862545;29;20223;-77
2023/03/06 13:55:50;;;;;;;16.80;7.57;;;9.10;99.90;;;;;;4879069;29;20239;-75
2023/03/06 13:58:31;;;;;;;17.37;6.73;;;9.50;99.90;;;;;;4879420;29;20211;-74
2023/03/06 14:01:20;;;;;;;15.60;7.30;;;9.70;99.90;;;;;;4879216;29;20575;-75
2023/03/06 14:04:26;;;;;;;16.00;6.40;;;9.40;99.90;;;;;;4876979;29;20222;-75
2023/03/06 14:07:03;;;;;;;16.97;7.20;;;9.00;99.90;;;;;;4873414;29;20302;-73
2023/03/06 14:09:33;;;;;;;14.83;6.47;;;8.60;99.90;;;;;;4878658;29;20227;-74
2023/03/06 14:12:07;;;;;;;15.50;7.23;;;8.50;99.90;;;;;;4878528;29;20604;-75
2023/03/06 14:14:41;;;;;;;18.60;7.97;;;8.40;99.90;;;;;;4874002;29;20297;-74
2023/03/06 14:17:19;;;;;;;16.37;6.87;;;8.30;99.90;;;;;;4878990;29;20250;-75
2023/03/06 14:19:47;;;;;;;16.07;7.80;;;8.30;99.90;;;;;;4878091;29;20242;-74
2023/03/06 14:22:17;;;;;;;18.60;8.03;;;8.50;99.90;;;;;;4879154;29;20690;-75
2023/03/06 14:24:53;;;;;;;18.17;8.17;;;8.50;99.90;;;;;;4878993;29;20215;-75
2023/03/06 14:27:21;;;;;;;14.27;6.87;;;8.50;99.90;;;;;;4878586;29;20211;-74
2023/03/06 14:29:49;;;;;;;13.13;6.17;;;8.40;99.90;;;;;;4878670;29;20222;-73
2023/03/06 14:32:18;;;;;;;14.23;6.40;;;8.20;99.90;;;;;;4879196;29;20212;-74
2023/03/06 14:34:46;;;;;;;15.73;6.30;;;8.20;99.90;;;;;;4878824;29;20219;-76
2023/03/06 14:37:24;;;;;;;16.47;6.73;;;8.20;99.90;;;;;;4879467;29;20574;-78
2023/03/06 14:39:51;;;;;;;12.33;5.77;;;8.30;99.90;;;;;;4878145;29;20333;-74
2023/03/06 14:42:20;;;;;;;17.13;7.63;;;8.60;99.90;;;;;;4878934;29;20211;-73
2023/03/06 14:44:49;;;;;;;14.87;6.50;;;8.80;99.90;;;;;;4874185;29;20211;-73
2023/03/06 14:47:26;;;;;;;12.77;6.20;;;9.00;99.90;;;;;;4878138;29;20663;-71
2023/03/06 14:50:17;;;;;;;11.93;5.90;;;8.80;99.90;;;;;;4878811;29;20682;-75
2023/03/06 14:52:45;;;;;;;14.87;5.83;;;8.70;99.90;;;;;;4874700;29;20214;-73
2023/03/06 14:55:17;;;;;;;11.33;5.40;;;8.40;99.90;;;;;;4879775;29;20237;-74
2023/03/06 14:57:45;;;;;;;15.07;6.00;;;8.40;99.90;;;;;;4880124;29;20218;-74
2023/03/06 15:00:19;;;;;;;14.63;5.90;;;8.40;99.90;;;;;;4880176;29;20235;-74
2023/03/06 15:02:47;;;;;;;18.67;6.97;;;8.50;99.90;;;;;;4880295;29;20207;-74
2023/03/06 15:05:21;;;;;;;11.87;5.80;;;8.60;99.90;;;;;;4879214;29;20254;-73
2023/03/06 15:07:48;;;;;;;13.40;5.43;;;8.50;99.90;;;;;;4877988;29;20219;-74
2023/03/06 15:10:22;;;;;;;12.13;5.70;;;8.30;99.90;;;;;;4879633;29;20267;-74
2023/03/06 15:12:49;;;;;;;14.00;5.50;;;8.10;99.90;;;;;;4880090;29;20207;-74
2023/03/06 15:15:30;;;;;;;13.20;5.70;;;8.00;99.90;;;;;;4879911;29;20671;-74
2023/03/06 15:17:57;;;;;;;15.07;6.07;;;8.00;99.90;;;;;;4879768;29;20216;-74
2023/03/06 15:20:41;;;;;;;14.60;5.87;;;7.90;99.90;;;;;;4879613;29;20253;-74
2023/03/06 15:23:26;;;;;;;14.10;6.60;;;7.90;99.90;;;;;;4879349;29;20213;-74
2023/03/06 15:25:58;;;;;;;11.23;5.43;;;8.00;99.90;;;;;;4879288;29;20227;-74
2023/03/06 15:28:34;;;;;;;14.67;6.23;;;8.10;99.90;;;;;;4880080;29;20215;-74
2023/03/06 15:31:04;;;;;;;13.23;6.00;;;8.10;99.90;;;;;;4879480;29;20211;-74
2023/03/06 15:33:31;;;;;;;12.00;5.77;;;8.10;99.90;;;;;;4878989;29;20214;-74
2023/03/06 15:36:00;;;;;;;12.57;6.00;;;8.10;99.90;;;;;;4878944;29;20444;-74
2023/03/06 15:38:39;;;;;;;14.13;5.60;;;8.20;99.90;;;;;;4878210;29;20307;-74
2023/03/06 15:41:20;;;;;;;12.07;5.43;;;8.20;99.90;;;;;;4879101;29;20245;-74
2023/03/06 15:43:47;;;;;;;14.83;6.93;;;8.10;99.90;;;;;;4879201;29;20207;-74
2023/03/06 15:46:15;;;;;;;14.03;5.90;;;8.10;99.90;;;;;;4879336;29;20326;-74
2023/03/06 15:48:52;;;;;;;12.30;5.60;;;8.10;99.90;;;;;;4879467;29;20221;-74
2023/03/06 15:51:19;;;;;;;10.13;4.40;;;7.80;99.90;;;;;;4879033;29;20219;-74
2023/03/06 15:53:46;;;;;;;9.60;4.43;;;7.70;99.90;;;;;;4878687;29;20702;-74
2023/03/06 15:56:14;;;;;;;10.93;4.47;;;7.60;99.90;;;;;;4878903;29;20261;-74
2023/03/06 15:58:42;;;;;;;11.67;4.73;;;7.50;99.90;;;;;;4878695;29;20215;-74
2023/03/06 16:01:14;;;;;;;12.53;4.83;;;7.60;99.90;;;;;;4879014;29;20752;-74
2023/03/06 16:03:42;;;;;;;9.73;4.40;;;7.50;99.90;;;;;;4878927;29;20694;-73
2023/03/06 16:06:16;;;;;;;10.43;5.07;;;7.50;99.90;;;;;;4879056;29;20231;-74
2023/03/06 16:08:43;;;;;;;13.43;4.27;;;7.50;99.90;;;;;;4879295;29;20215;-74
2023/03/06 16:11:16;;;;;;;9.47;4.27;;;7.40;99.90;;;;;;4878933;29;20714;-74
2023/03/06 16:13:43;;;;;;;12.00;4.63;;;7.40;99.90;;;;;;4879302;29;20212;-73
2023/03/06 16:16:16;;;;;;;9.83;4.50;;;7.30;99.90;;;;;;4878931;29;20257;-74
2023/03/06 16:18:45;;;;;;;13.07;4.37;;;7.20;99.90;;;;;;4878941;29;20211;-74
2023/03/06 16:21:12;;;;;;;8.97;4.40;;;7.20;99.90;;;;;;4878703;29;20243;-73
2023/03/06 16:23:39;;;;;;;7.13;3.73;;;7.20;99.90;;;;;;4879263;29;20211;-73
2023/03/06 16:26:06;;;;;;;7.27;3.30;;;7.30;99.90;;;;;;4879037;29;20235;-74
2023/03/06 16:28:39;;;;;;;9.17;4.40;;;7.30;99.90;;;;;;4878611;29;20219;-73
2023/03/06 16:31:06;;;;;;;14.70;4.90;;;7.30;99.90;;;;;;4878607;29;20263;-73
2023/03/06 16:33:32;;;;;;;8.50;3.43;;;7.30;99.90;;;;;;4878962;29;20237;-73
2023/03/06 16:36:01;;;;;;;7.40;3.97;;;7.30;99.90;;;;;;4878792;29;20246;-73
2023/03/06 16:38:28;;;;;;;11.47;4.90;;;7.40;99.90;;;;;;4879167;29;20208;-73
2023/03/06 16:40:54;;;;;;;10.50;4.60;;;7.40;99.90;;;;;;4878952;29;20244;-73
2023/03/06 16:43:21;;;;;;;10.53;4.77;;;7.30;99.90;;;;;;4878799;29;20570;-73
2023/03/06 16:45:48;;;;;;;9.40;3.97;;;7.40;99.90;;;;;;4879161;29;20230;-72
2023/03/06 16:48:16;;;;;;;11.43;4.00;;;7.40;99.90;;;;;;4878634;29;20214;-74
2023/03/06 16:50:43;;;;;;;7.83;3.83;;;7.30;99.90;;;;;;4881755;29;20632;-75
2023/03/06 16:53:12;;;;;;;10.20;4.00;;;7.30;99.90;;;;;;4881674;29;20670;-72
2023/03/06 16:55:39;;;;;;;8.97;4.27;;;7.30;99.90;;;;;;4877633;29;20261;-73
2023/03/06 16:58:07;;;;;;;10.47;4.50;;;7.40;99.90;;;;;;4881058;29;20219;-73
2023/03/06 17:00:34;;;;;;;10.63;4.27;;;7.30;99.90;;;;;;4880773;29;20235;-73
2023/03/06 17:03:02;;;;;;;11.80;4.80;;;7.20;99.90;;;;;;4880146;29;20714;-73
2023/03/06 17:05:32;;;;;;;10.23;4.10;;;7.10;99.90;;;;;;4881286;29;20231;-74
2023/03/06 17:07:58;;;;;;;8.80;4.73;;;7.20;99.90;;;;;;4880608;29;20222;-74
2023/03/06 17:10:26;;;;;;;8.27;4.63;;;7.20;99.90;;;;;;4880078;29;20223;-73
2023/03/06 17:12:54;;;;;;;13.73;4.53;;;7.20;99.90;;;;;;4880311;29;20219;-73
2023/03/06 17:15:20;;;;;;;11.07;4.27;;;7.20;99.90;;;;;;4879852;29;20722;-74
2023/03/06 17:17:47;;;;;;;10.47;4.23;;;7.20;99.90;;;;;;4879886;29;20239;-73
2023/03/06 17:20:15;;;;;;;9.60;3.90;;;7.10;99.90;;;;;;4877916;29;20257;-74
2023/03/06 17:22:42;;;;;;;8.70;4.00;;;7.10;99.90;;;;;;4878652;29;20208;-74
2023/03/06 17:25:09;;;;;;;12.70;5.03;;;7.10;99.90;;;;;;4879959;29;20232;-74
2023/03/06 17:27:38;;;;;;;9.83;4.47;;;7.10;99.90;;;;;;4880590;29;20263;-74
2023/03/06 17:30:06;;;;;;;11.50;4.97;;;7.10;99.90;;;;;;4880134;29;20218;-74
2023/03/06 17:32:33;;;;;;;8.50;3.33;;;7.10;99.90;;;;;;4879942;29;20218;-73
2023/03/06 17:35:00;;;;;;;9.27;4.53;;;7.00;99.90;;;;;;4879901;29;20242;-75
2023/03/06 17:37:27;;;;;;;11.50;4.20;;;6.90;99.90;;;;;;4880152;29;20275;-73
2023/03/06 17:39:54;;;;;;;10.67;4.60;;;7.00;99.90;;;;;;4879366;29;20213;-73
2023/03/06 17:42:21;;;;;;;10.47;4.40;;;7.00;99.90;;;;;;4879936;29;20226;-75
2023/03/06 17:44:49;;;;;;;9.80;4.73;;;7.00;99.90;;;;;;4880087;29;20249;-74
2023/03/06 17:47:16;;;;;;;12.50;5.10;;;7.10;99.90;;;;;;4879789;29;20310;-73
2023/03/06 17:49:43;;;;;;;10.33;4.27;;;7.00;99.90;;;;;;4880112;29;20218;-73
2023/03/06 17:52:10;;;;;;;8.77;3.93;;;6.90;99.90;;;;;;4879375;29;20211;-74
2023/03/06 17:54:37;;;;;;;9.87;4.70;;;6.80;99.90;;;;;;4879166;29;20215;-73
2023/03/06 17:57:04;;;;;;;13.97;5.73;;;6.70;99.90;;;;;;4879719;29;20225;-73
2023/03/06 17:59:33;;;;;;;11.77;5.17;;;6.60;99.90;;;;;;4879920;29;20207;-72
2023/03/06 18:02:02;;;;;;;11.40;4.63;;;6.50;99.90;;;;;;4878405;29;20643;-72
2023/03/06 18:04:29;;;;;;;12.87;4.37;;;6.50;99.90;;;;;;4879714;29;20590;-72
2023/03/06 18:06:57;;;;;;;9.90;5.07;;;6.40;99.90;;;;;;4879795;29;20239;-72
2023/03/06 18:09:24;;;;;;;10.07;5.00;;;6.30;99.90;;;;;;4878798;29;20219;-71
2023/03/06 18:11:50;;;;;;;8.63;4.73;;;6.20;99.90;;;;;;4879245;29;20221;-72
2023/03/06 18:14:17;;;;;;;9.43;4.13;;;6.10;99.90;;;;;;4879412;29;20223;-72
2023/03/06 18:16:44;;;;;;;13.03;4.70;;;6.00;99.90;;;;;;4878879;29;20223;-72
2023/03/06 18:19:13;;;;;;;11.37;4.53;;;5.90;99.90;;;;;;4878563;29;20211;-73
2023/03/06 18:21:40;;;;;;;12.60;5.27;;;5.80;99.90;;;;;;4861039;29;20331;-73
2023/03/06 18:24:08;;;;;;;11.63;4.57;;;5.60;99.90;;;;;;4860100;29;20219;-73
2023/03/06 18:26:35;;;;;;;14.23;5.13;;;5.40;99.90;;;;;;4861392;29;20772;-74
2023/03/06 18:29:04;;;;;;;11.17;4.80;;;5.30;99.90;;;;;;4862161;29;20738;-74
2023/03/06 18:31:32;;;;;;;12.50;4.77;;;5.20;99.90;;;;;;4862199;29;20674;-74
2023/03/06 18:34:01;;;;;;;10.27;4.50;;;5.30;99.90;;;;;;4861744;29;20311;-74
2023/03/06 18:36:31;;;;;;;16.77;4.77;;;5.30;99.90;;;;;;4861541;29;20242;-74
2023/03/06 18:39:01;;;;;;;13.60;5.63;;;5.20;99.90;;;;;;4861142;29;20219;-74
2023/03/06 18:41:28;;;;;;;10.53;4.43;;;5.20;99.90;;;;;;4861303;29;20240;-75
2023/03/06 18:43:56;;;;;;;8.10;4.23;;;5.20;99.90;;;;;;4861137;29;20226;-74
2023/03/06 18:46:24;;;;;;;8.43;4.80;;;5.20;99.90;;;;;;4861246;29;20242;-74
2023/03/06 18:48:51;;;;;;;12.13;4.83;;;5.20;99.90;;;;;;4861240;29;20583;-74
2023/03/06 18:51:19;;;;;;;8.97;4.47;;;5.20;99.90;;;;;;4861287;29;20226;-74
2023/03/06 18:53:47;;;;;;;10.80;4.33;;;5.20;99.90;;;;;;4861695;29;20272;-75
2023/03/06 18:56:16;;;;;;;12.03;5.13;;;5.20;99.90;;;;;;4861593;29;20236;-75
2023/03/06 18:58:43;;;;;;;10.83;4.47;;;5.30;99.90;;;;;;4861420;29;20215;-74
2023/03/06 19:01:10;;;;;;;9.37;4.93;;;5.20;99.90;;;;;;4861451;29;20610;-75
2023/03/06 19:03:37;;;;;;;10.10;4.50;;;5.30;99.90;;;;;;4861449;29;20290;-74
2023/03/06 19:06:06;;;;;;;10.60;4.33;;;5.30;99.90;;;;;;4861894;29;20242;-74
2023/03/06 19:08:34;;;;;;;8.40;3.70;;;5.30;99.90;;;;;;4861450;29;20218;-74
2023/03/06 19:11:04;;;;;;;8.10;3.40;;;5.30;99.90;;;;;;4861075;29;20223;-74
2023/03/06 19:13:31;;;;;;;8.37;4.43;;;5.30;99.90;;;;;;4861300;29;20216;-74
2023/03/06 19:15:58;;;;;;;7.90;4.30;;;5.30;99.90;;;;;;4861492;29;20573;-74
2023/03/06 19:18:27;;;;;;;7.67;3.83;;;5.30;99.90;;;;;;4861374;29;20216;-74
2023/03/06 19:20:55;;;;;;;8.50;5.10;;;5.30;99.90;;;;;;4861255;29;20232;-74
2023/03/06 19:23:22;;;;;;;6.33;3.53;;;5.40;99.90;;;;;;4861415;29;20270;-74
2023/03/06 19:25:56;;;;;;;8.93;4.57;;;5.40;99.90;;;;;;4861376;29;20322;-74
2023/03/06 19:28:24;;;;;;;8.17;4.20;;;5.50;99.90;;;;;;4861179;29;20789;-73
2023/03/06 19:30:51;;;;;;;9.07;3.67;;;5.40;99.90;;;;;;4861326;29;20306;-74
2023/03/06 19:33:18;;;;;;;6.83;3.63;;;5.50;99.90;;;;;;4860903;29;20304;-74
2023/03/06 19:35:45;;;;;;;10.30;4.10;;;5.50;99.90;;;;;;4860925;29;20232;-74
2023/03/06 19:38:12;;;;;;;6.83;4.03;;;5.50;99.90;;;;;;4861502;29;20208;-74
2023/03/06 19:40:39;;;;;;;7.23;3.73;;;5.50;99.90;;;;;;4860884;29;20254;-74
2023/03/06 19:43:06;;;;;;;7.83;4.40;;;5.50;99.90;;;;;;4860936;29;20212;-73
2023/03/06 19:45:35;;;;;;;6.90;3.63;;;5.50;99.90;;;;;;4860537;29;20322;-73
2023/03/06 19:48:04;;;;;;;9.87;4.17;;;5.50;99.90;;;;;;4860926;29;20244;-73
2023/03/06 19:50:31;;;;;;;7.30;3.37;;;5.50;99.90;;;;;;4861017;29;20211;-74
2023/03/06 19:52:58;;;;;;;6.40;3.73;;;5.60;99.90;;;;;;4860928;29;20216;-74
2023/03/06 19:55:27;;;;;;;8.60;3.80;;;5.70;99.90;;;;;;4860761;29;20323;-73
2023/03/06 19:57:54;;;;;;;8.27;3.63;;;5.70;99.90;;;;;;4860817;29;20218;-73
2023/03/06 20:00:21;;;;;;;9.93;3.67;;;5.70;99.90;;;;;;4860959;29;20211;-73
2023/03/06 20:02:50;;;;;;;9.57;4.03;;;5.70;99.90;;;;;;4860635;29;20236;-74
2023/03/06 20:05:17;;;;;;;7.90;3.73;;;5.80;99.90;;;;;;4860638;29;20263;-73
2023/03/06 20:07:44;;;;;;;7.20;3.50;;;5.80;99.90;;;;;;4860663;29;20223;-73
2023/03/06 20:10:11;;;;;;;6.43;3.37;;;5.80;99.90;;;;;;4860703;29;20318;-74
2023/03/06 20:12:38;;;;;;;6.60;3.20;;;5.80;99.90;;;;;;4860648;29;20207;-74
2023/03/06 20:15:06;;;;;;;7.20;3.57;;;5.90;99.90;;;;;;4860675;29;20242;-74
2023/03/06 20:17:33;;;;;;;4.90;2.70;;;5.80;99.90;;;;;;4860922;29;20212;-73
2023/03/06 20:20:02;;;;;;;5.40;3.23;;;5.80;99.90;;;;;;4860758;29;20220;-74
2023/03/06 20:22:29;;;;;;;11.33;3.53;;;5.80;99.90;;;;;;4860463;29;20251;-74
2023/03/06 20:24:55;;;;;;;4.80;2.97;;;5.70;99.90;;;;;;4862716;29;20238;-73
2023/03/06 20:27:22;;;;;;;10.53;3.50;;;5.80;99.90;;;;;;4864161;29;20211;-74
2023/03/06 20:29:49;;;;;;;6.53;2.77;;;5.80;99.90;;;;;;4864477;29;20222;-74
2023/03/06 20:32:16;;;;;;;4.67;2.27;;;5.70;99.90;;;;;;4864050;29;20212;-74
2023/03/06 20:34:43;;;;;;;5.53;2.57;;;5.60;99.90;;;;;;4864146;29;20226;-75
2023/03/06 20:37:11;;;;;;;8.20;3.23;;;5.60;99.90;;;;;;4864304;29;20284;-74
2023/03/06 20:39:38;;;;;;;8.37;2.93;;;5.60;99.90;;;;;;4863920;29;20704;-74
2023/03/06 20:42:05;;;;;;;9.43;2.37;;;5.50;99.90;;;;;;4864098;29;20236;-74
2023/03/06 20:44:32;;;;;;;7.37;3.17;;;5.60;99.90;;;;;;4864159;29;20234;-74
2023/03/06 20:46:59;;;;;;;6.00;3.03;;;5.50;99.90;;;;;;4864118;29;20231;-74
2023/03/06 20:49:27;;;;;;;7.30;3.20;;;5.50;99.90;;;;;;4864019;29;20218;-74
2023/03/06 20:51:54;;;;;;;6.10;2.80;;;5.60;99.90;;;;;;4863910;29;20671;-74
2023/03/06 20:54:23;;;;;;;7.80;3.20;;;5.60;99.90;;;;;;4863639;29;20222;-74
2023/03/06 20:56:50;;;;;;;4.63;2.63;;;5.50;99.90;;;;;;4863849;29;20288;-74
2023/03/06 20:59:17;;;;;;;6.00;2.60;;;5.50;99.90;;;;;;4863798;29;20212;-73
2023/03/06 21:01:46;;;;;;;5.00;2.70;;;5.50;99.90;;;;;;4863505;29;20623;-73
2023/03/06 21:04:14;;;;;;;6.67;2.93;;;5.50;99.90;;;;;;4863656;29;20326;-73
2023/03/06 21:06:44;;;;;;;3.30;1.80;;;5.50;99.90;;;;;;4864111;29;20235;-73
2023/03/06 21:09:11;;;;;;;8.47;3.00;;;5.50;99.90;;;;;;4863058;29;20227;-73
2023/03/06 21:11:39;;;;;;;7.37;3.13;;;5.50;99.90;;;;;;4863591;29;20212;-73
2023/03/06 21:14:06;;;;;;;4.47;2.27;;;5.60;99.90;;;;;;4863446;29;20212;-73
2023/03/06 21:16:33;;;;;;;7.87;2.90;;;5.60;99.90;;;;;;4863423;29;20254;-74
2023/03/06 21:19:00;;;;;;;5.73;2.43;;;5.60;99.90;;;;;;4862862;29;20698;-73
2023/03/06 21:21:30;;;;;;;5.80;2.60;;;5.60;99.90;;;;;;4863177;29;20240;-74
2023/03/06 21:23:57;;;;;;;6.53;2.30;;;5.50;99.90;;;;;;4863513;29;20241;-73
2023/03/06 21:26:25;;;;;;;6.53;2.53;;;5.50;99.90;;;;;;4863354;29;20235;-74
2023/03/06 21:28:55;;;;;;;7.60;2.20;;;5.50;99.90;;;;;;4863295;29;20215;-73
2023/03/06 21:31:22;;;;;;;5.90;2.73;;;5.60;99.90;;;;;;4862926;29;20230;-73
2023/03/06 21:33:49;;;;;;;6.20;2.70;;;5.60;99.90;;;;;;4863055;29;20686;-73
2023/03/06 21:36:17;;;;;;;7.33;2.70;;;5.50;99.90;;;;;;4861953;29;20236;-73
2023/03/06 21:38:44;;;;;;;5.73;2.43;;;5.50;99.90;;;;;;4862865;29;20275;-73
2023/03/06 21:41:12;;;;;;;5.97;2.57;;;5.50;99.90;;;;;;4862862;29;20220;-73
2023/03/06 21:43:40;;;;;;;4.83;2.40;;;5.50;99.90;;;;;;4862999;29;20219;-74
2023/03/06 21:46:09;;;;;;;4.77;2.73;;;5.60;99.90;;;;;;4862773;29;20232;-73
